createdAt,value
2023-01-13T00:01:29.094Z,1.90
2023-01-13T00:03:57.021Z,0.52
2023-01-13T00:06:26.100Z,1.50
2023-01-13T00:08:54.254Z,0.93
2023-01-13T00:11:22.865Z,0.40
2023-01-13T00:13:50.547Z,0.20
2023-01-13T00:16:19.506Z,3.40
2023-01-13T00:18:48.579Z,0.40
2023-01-13T00:21:22.068Z,1.58
2023-01-13T00:23:51.746Z,0.65
2023-01-13T00:26:25.887Z,0.20
2023-01-13T00:29:00.600Z,0.98
2023-01-13T00:31:29.755Z,0.57
2023-01-13T00:34:00.048Z,2.27
2023-01-13T00:36:29.310Z,1.13
2023-01-13T00:38:57.814Z,0.32
2023-01-13T00:41:28.304Z,0.52
2023-01-13T00:43:56.128Z,0.40
2023-01-13T00:46:24.786Z,1.10
2023-01-13T00:48:52.938Z,0.73
2023-01-13T00:51:22.109Z,1.48
2023-01-13T00:53:52.147Z,1.05
2023-01-13T00:56:39.009Z,0.95
2023-01-13T00:59:11.073Z,2.10
2023-01-13T01:01:39.020Z,0.30
2023-01-13T01:04:07.220Z,0.47
2023-01-13T01:06:34.939Z,0.45
2023-01-13T01:09:03.077Z,1.17
2023-01-13T01:11:32.732Z,0.65
2023-01-13T01:14:03.252Z,0.55
2023-01-13T01:16:33.002Z,0.45
2023-01-13T01:19:01.905Z,1.50
2023-01-13T01:21:29.681Z,1.98
2023-01-13T01:24:00.543Z,0.83
2023-01-13T01:26:30.804Z,0.88
2023-01-13T01:28:59.126Z,0.45
2023-01-13T01:31:31.607Z,0.20
2023-01-13T01:34:00.665Z,0.40
2023-01-13T01:36:30.261Z,0.22
2023-01-13T01:38:59.506Z,0.28
2023-01-13T01:41:30.677Z,0.98
2023-01-13T01:44:37.981Z,1.00
2023-01-13T01:47:06.390Z,0.20
2023-01-13T01:49:37.680Z,2.28
2023-01-13T01:52:30.533Z,4.68
2023-01-13T01:55:11.870Z,0.63
2023-01-13T01:57:58.662Z,0.50
2023-01-13T02:00:28.461Z,1.08
2023-01-13T02:02:57.356Z,1.55
2023-01-13T02:05:25.118Z,0.20
2023-01-13T02:07:56.872Z,0.68
2023-01-13T02:10:27.825Z,0.85
2023-01-13T02:13:04.055Z,0.40
2023-01-13T02:16:02.220Z,0.63
2023-01-13T02:19:17.510Z,0.90
2023-01-13T02:22:29.141Z,0.75
2023-01-13T02:25:55.848Z,0.52
2023-01-13T02:29:34.215Z,1.50
2023-01-13T02:32:15.466Z,0.17
2023-01-13T02:35:17.350Z,1.30
2023-01-13T02:37:46.021Z,0.85
2023-01-13T02:40:35.627Z,1.38
2023-01-13T02:43:35.334Z,0.45
2023-01-13T02:46:20.507Z,1.90
2023-01-13T02:48:50.571Z,1.75
2023-01-13T02:51:23.230Z,1.73
2023-01-13T02:54:03.725Z,0.63
2023-01-13T02:56:34.428Z,0.98
2023-01-13T02:59:03.435Z,0.85
2023-01-13T03:01:31.070Z,0.10
2023-01-13T03:03:58.766Z,0.20
2023-01-13T03:06:58.003Z,0.60
2023-01-13T03:09:37.465Z,1.52
2023-01-13T03:12:39.609Z,3.10
2023-01-13T03:15:40.667Z,1.17
2023-01-13T03:18:23.404Z,1.03
2023-01-13T03:21:20.993Z,0.37
2023-01-13T03:24:03.463Z,0.10
2023-01-13T03:27:12.762Z,0.20
2023-01-13T03:29:48.481Z,0.80
2023-01-13T03:32:27.250Z,0.45
2023-01-13T03:35:13.293Z,0.10
2023-01-13T03:38:17.209Z,0.23
2023-01-13T03:40:55.698Z,0.90
2023-01-13T03:43:53.722Z,3.13
2023-01-13T03:46:34.050Z,0.93
2023-01-13T03:49:04.478Z,1.50
2023-01-13T03:51:35.109Z,2.05
2023-01-13T03:54:10.254Z,0.57
2023-01-13T03:57:10.359Z,0.30
2023-01-13T03:59:43.692Z,1.75
2023-01-13T04:02:34.880Z,1.35
2023-01-13T04:05:06.989Z,1.85
2023-01-13T04:07:47.471Z,0.10
2023-01-13T04:10:23.440Z,0.10
2023-01-13T04:13:01.842Z,0.90
2023-01-13T04:15:42.877Z,1.42
2023-01-13T04:18:27.202Z,0.20
2023-01-13T04:20:58.336Z,3.20
2023-01-13T04:23:27.841Z,0.50
2023-01-13T04:25:56.262Z,1.33
2023-01-13T04:28:24.864Z,0.13
2023-01-13T04:30:53.057Z,0.30
2023-01-13T04:33:21.051Z,0.60
2023-01-13T04:35:48.795Z,1.23
2023-01-13T04:38:19.281Z,2.10
2023-01-13T04:40:47.823Z,3.70
2023-01-13T04:43:16.019Z,1.70
2023-01-13T04:45:44.580Z,5.07
2023-01-13T04:48:12.468Z,1.60
2023-01-13T04:50:40.501Z,1.50
2023-01-13T04:53:08.215Z,2.65
2023-01-13T04:55:35.887Z,3.72
2023-01-13T04:58:09.568Z,1.45
2023-01-13T05:00:38.066Z,2.05
2023-01-13T05:03:05.910Z,2.00
2023-01-13T05:05:33.599Z,0.63
2023-01-13T05:08:01.224Z,1.63
2023-01-13T05:10:29.036Z,0.80
2023-01-13T05:13:15.577Z,0.85
2023-01-13T05:16:03.279Z,2.92
2023-01-13T05:18:32.369Z,2.88
2023-01-13T05:20:59.933Z,4.10
2023-01-13T05:23:46.547Z,1.30
2023-01-13T05:26:14.131Z,0.47
2023-01-13T05:28:41.774Z,1.73
2023-01-13T05:31:09.496Z,0.82
2023-01-13T05:33:37.242Z,0.20
2023-01-13T05:36:05.743Z,1.85
2023-01-13T05:38:33.397Z,0.20
2023-01-13T05:41:19.408Z,0.65
2023-01-13T05:43:47.111Z,0.40
2023-01-13T05:46:15.008Z,1.50
2023-01-13T05:48:43.701Z,0.30
2023-01-13T05:51:13.215Z,1.25
2023-01-13T05:53:41.240Z,0.38
2023-01-13T05:56:09.924Z,1.73
2023-01-13T05:58:38.134Z,0.60
2023-01-13T06:01:08.759Z,0.80
2023-01-13T06:03:37.168Z,0.77
2023-01-13T06:06:05.210Z,0.37
2023-01-13T06:08:33.012Z,0.70
2023-01-13T06:11:00.850Z,2.42
2023-01-13T06:13:28.487Z,1.23
2023-01-13T06:16:00.350Z,0.43
2023-01-13T06:18:29.013Z,0.20
2023-01-13T06:20:57.208Z,2.15
2023-01-13T06:23:24.851Z,1.27
2023-01-13T06:26:19.643Z,0.85
2023-01-13T06:28:47.434Z,1.00
2023-01-13T06:31:15.042Z,1.45
2023-01-13T06:33:50.711Z,0.43
2023-01-13T06:36:27.996Z,0.65
2023-01-13T06:39:00.437Z,1.25
2023-01-13T06:41:49.550Z,0.60
2023-01-13T06:44:19.790Z,0.35
2023-01-13T06:46:47.699Z,2.63
2023-01-13T06:49:15.343Z,1.35
2023-01-13T06:51:43.550Z,3.00
2023-01-13T06:54:11.078Z,2.15
2023-01-13T06:56:38.745Z,0.47
2023-01-13T06:59:06.473Z,1.20
2023-01-13T07:01:34.130Z,0.93
2023-01-13T07:04:02.551Z,0.63
2023-01-13T07:06:30.471Z,1.25
2023-01-13T07:08:58.044Z,0.20
2023-01-13T07:11:25.690Z,0.73
2023-01-13T07:14:12.057Z,0.90
2023-01-13T07:16:39.725Z,0.63
2023-01-13T07:19:07.308Z,1.35
2023-01-13T07:21:34.902Z,1.23
2023-01-13T07:24:02.488Z,2.40
2023-01-13T07:26:30.148Z,1.57
2023-01-13T07:28:58.223Z,1.30
2023-01-13T07:31:26.043Z,1.73
2023-01-13T07:33:53.718Z,2.03
2023-01-13T07:36:21.331Z,0.50
2023-01-13T07:38:48.934Z,1.50
2023-01-13T07:41:35.318Z,0.50
2023-01-13T07:44:06.048Z,0.50
2023-01-13T07:46:36.005Z,4.83
2023-01-13T07:49:05.598Z,2.10
2023-01-13T07:51:37.332Z,1.80
2023-01-13T07:54:05.716Z,1.90
2023-01-13T07:56:33.528Z,0.83
2023-01-13T07:59:01.586Z,1.75
2023-01-13T08:01:29.398Z,3.20
2023-01-13T08:03:58.760Z,2.93
2023-01-13T08:06:26.945Z,1.87
2023-01-13T08:08:54.785Z,3.30
2023-01-13T08:11:23.681Z,3.67
2023-01-13T08:13:57.398Z,5.77
2023-01-13T08:16:25.189Z,3.37
2023-01-13T08:18:52.807Z,7.10
2023-01-13T08:21:20.615Z,3.67
2023-01-13T08:23:48.282Z,3.83
2023-01-13T08:26:18.338Z,3.70
2023-01-13T08:28:46.216Z,3.07
2023-01-13T08:31:17.043Z,2.60
2023-01-13T08:33:44.920Z,5.90
2023-01-13T08:36:13.853Z,4.75
2023-01-13T08:38:42.218Z,5.13
2023-01-13T08:41:36.526Z,3.65
2023-01-13T08:44:06.455Z,1.63
2023-01-13T08:46:34.270Z,5.30
2023-01-13T08:49:02.235Z,3.33
2023-01-13T08:51:29.947Z,7.72
2023-01-13T08:53:57.540Z,7.60
2023-01-13T08:56:25.316Z,3.63
2023-01-13T08:58:53.001Z,6.53
2023-01-13T09:01:23.294Z,10.17
2023-01-13T09:03:51.409Z,6.63
2023-01-13T09:06:19.637Z,5.87
2023-01-13T09:08:47.737Z,8.00
2023-01-13T09:11:39.342Z,8.17
2023-01-13T09:14:07.014Z,4.35
2023-01-13T09:16:34.552Z,4.30
2023-01-13T09:19:02.157Z,6.13
2023-01-13T09:21:29.849Z,9.77
2023-01-13T09:23:57.486Z,6.78
2023-01-13T09:26:25.128Z,4.50
2023-01-13T09:28:52.705Z,2.92
2023-01-13T09:31:20.342Z,3.10
2023-01-13T09:34:06.661Z,4.43
2023-01-13T09:36:34.686Z,3.25
2023-01-13T09:39:02.303Z,1.63
2023-01-13T09:41:53.293Z,5.88
2023-01-13T09:44:57.514Z,2.83
2023-01-13T09:47:33.650Z,2.70
2023-01-13T09:50:49.247Z,4.35
2023-01-13T09:53:29.319Z,1.52
2023-01-13T09:55:57.052Z,3.45
2023-01-13T09:58:25.046Z,2.65
2023-01-13T10:00:55.693Z,2.55
2023-01-13T10:03:35.260Z,2.42
2023-01-13T10:06:30.735Z,5.47
2023-01-13T10:08:58.643Z,1.70
2023-01-13T10:11:51.980Z,6.10
2023-01-13T10:14:41.364Z,2.38
2023-01-13T10:17:40.237Z,2.33
2023-01-13T10:20:26.717Z,5.75
2023-01-13T10:23:27.650Z,5.85
2023-01-13T10:26:28.891Z,6.30
2023-01-13T10:28:57.435Z,1.90
2023-01-13T10:31:25.966Z,3.25
2023-01-13T10:34:03.975Z,3.88
2023-01-13T10:36:31.655Z,1.40
2023-01-13T10:39:15.546Z,1.67
2023-01-13T10:41:44.579Z,3.47
2023-01-13T10:44:18.024Z,4.10
2023-01-13T10:46:58.736Z,0.98
2023-01-13T10:49:37.112Z,3.65
2023-01-13T10:52:29.254Z,2.35
2023-01-13T10:54:58.026Z,2.85
2023-01-13T10:57:27.727Z,2.85
2023-01-13T10:59:56.269Z,2.72
2023-01-13T11:02:33.512Z,2.65
2023-01-13T11:05:22.779Z,2.55
2023-01-13T11:07:54.946Z,5.07
2023-01-13T11:10:31.328Z,2.03
2023-01-13T11:13:32.027Z,8.65
2023-01-13T11:16:13.189Z,3.38
2023-01-13T11:19:13.167Z,5.35
2023-01-13T11:22:15.972Z,3.00
2023-01-13T11:25:02.644Z,6.18
2023-01-13T11:27:53.573Z,2.78
2023-01-13T11:30:48.464Z,7.20
2023-01-13T11:33:25.965Z,2.25
2023-01-13T11:36:13.524Z,5.13
2023-01-13T11:38:54.595Z,2.97
2023-01-13T11:42:10.962Z,4.53
2023-01-13T11:44:49.652Z,9.45
2023-01-13T11:47:24.056Z,6.20
2023-01-13T11:49:51.982Z,5.68
2023-01-13T11:52:30.846Z,5.82
2023-01-13T11:55:17.637Z,3.42
2023-01-13T11:58:33.779Z,4.95
2023-01-13T12:01:33.989Z,3.80
2023-01-13T12:04:26.610Z,5.07
2023-01-13T12:07:23.003Z,7.60
2023-01-13T12:10:09.900Z,7.78
2023-01-13T12:13:12.292Z,4.30
2023-01-13T12:16:27.695Z,7.18
2023-01-13T12:19:24.426Z,5.40
2023-01-13T12:22:27.856Z,5.07
2023-01-13T12:25:07.073Z,10.77
2023-01-13T12:27:49.611Z,5.13
2023-01-13T12:30:24.138Z,7.75
2023-01-13T12:32:57.480Z,7.97
2023-01-13T12:35:42.332Z,10.55
2023-01-13T12:38:45.336Z,4.75
2023-01-13T12:41:59.728Z,8.20
2023-01-13T12:44:27.455Z,4.10
2023-01-13T12:46:59.354Z,4.47
2023-01-13T12:49:33.541Z,3.97
2023-01-13T12:52:20.055Z,6.32
2023-01-13T12:54:47.643Z,6.88
2023-01-13T12:57:25.399Z,5.90
2023-01-13T13:00:05.158Z,7.32
2023-01-13T13:02:37.836Z,4.55
2023-01-13T13:05:14.573Z,7.65
2023-01-13T13:07:53.197Z,6.97
2023-01-13T13:10:30.694Z,7.18
2023-01-13T13:13:19.907Z,8.05
2023-01-13T13:15:50.978Z,4.85
2023-01-13T13:18:19.485Z,4.50
2023-01-13T13:21:09.234Z,3.25
2023-01-13T13:24:00.942Z,7.47
2023-01-13T13:26:46.641Z,9.20
2023-01-13T13:29:39.312Z,6.95
2023-01-13T13:32:45.509Z,9.27
2023-01-13T13:35:37.032Z,6.55
2023-01-13T13:38:35.764Z,5.40
2023-01-13T13:41:37.944Z,6.32
2023-01-13T13:44:39.369Z,4.93
2023-01-13T13:47:08.221Z,6.22
2023-01-13T13:49:51.861Z,9.18
2023-01-13T13:52:51.671Z,6.70
2023-01-13T13:55:22.362Z,12.48
2023-01-13T13:57:53.463Z,5.20
2023-01-13T14:00:26.912Z,9.77
2023-01-13T14:03:32.695Z,7.35
2023-01-13T14:06:04.084Z,5.43
2023-01-13T14:08:49.385Z,7.32
2023-01-13T14:11:32.446Z,8.18
2023-01-13T14:14:13.672Z,5.72
2023-01-13T14:16:41.495Z,6.55
2023-01-13T14:19:32.202Z,7.55
2023-01-13T14:22:04.932Z,7.82
2023-01-13T14:24:32.722Z,9.50
2023-01-13T14:27:18.667Z,5.35
2023-01-13T14:29:46.642Z,7.93
2023-01-13T14:32:19.219Z,9.27
2023-01-13T14:34:47.693Z,5.78
2023-01-13T14:37:35.148Z,5.53
2023-01-13T14:40:03.829Z,7.13
2023-01-13T14:42:35.201Z,8.57
2023-01-13T14:45:03.654Z,9.80
2023-01-13T14:47:33.910Z,3.27
2023-01-13T14:50:27.984Z,6.50
2023-01-13T14:52:57.149Z,7.85
2023-01-13T14:55:40.314Z,5.38
2023-01-13T14:58:37.567Z,6.87
2023-01-13T15:01:27.689Z,8.50
2023-01-13T15:04:24.651Z,6.60
2023-01-13T15:06:57.302Z,7.67
2023-01-13T15:09:38.268Z,8.93
2023-01-13T15:12:36.139Z,7.43
2023-01-13T15:15:20.936Z,7.35
2023-01-13T15:17:48.863Z,5.75
2023-01-13T15:20:20.379Z,5.83
2023-01-13T15:22:49.291Z,6.23
2023-01-13T15:25:17.584Z,7.60
2023-01-13T15:27:50.068Z,6.50
2023-01-13T15:30:17.565Z,5.63
2023-01-13T15:32:45.567Z,5.70
2023-01-13T15:35:15.896Z,4.30
2023-01-13T15:37:45.173Z,7.63
2023-01-13T15:40:19.046Z,7.10
2023-01-13T15:43:06.172Z,7.33
2023-01-13T15:45:55.222Z,5.60
2023-01-13T15:48:26.274Z,3.33
2023-01-13T15:50:54.419Z,6.33
2023-01-13T15:53:22.336Z,9.20
2023-01-13T15:55:53.981Z,5.97
2023-01-13T15:58:28.414Z,5.07
2023-01-13T16:00:56.302Z,4.97
2023-01-13T16:03:23.964Z,4.07
2023-01-13T16:05:53.082Z,8.93
2023-01-13T16:08:23.349Z,4.40
2023-01-13T16:10:50.916Z,5.50
2023-01-13T16:13:18.527Z,9.40
2023-01-13T16:15:50.596Z,5.73
2023-01-13T16:18:26.296Z,9.93
2023-01-13T16:20:56.705Z,6.93
2023-01-13T16:23:24.497Z,8.43
2023-01-13T16:25:52.199Z,7.90
2023-01-13T16:28:26.144Z,6.60
2023-01-13T16:30:54.296Z,4.60
2023-01-13T16:33:21.965Z,9.73
2023-01-13T16:36:10.901Z,10.60
2023-01-13T16:38:37.414Z,6.60
2023-01-13T16:41:05.408Z,9.03
2023-01-13T16:43:34.034Z,8.77
2023-01-13T16:46:01.750Z,5.87
2023-01-13T16:48:29.419Z,8.33
2023-01-13T16:50:57.033Z,6.03
2023-01-13T16:53:24.811Z,6.93
2023-01-13T16:55:52.731Z,3.70
2023-01-13T16:58:20.988Z,9.67
2023-01-13T17:00:48.737Z,5.63
2023-01-13T17:03:17.097Z,5.43
2023-01-13T17:05:49.471Z,5.47
2023-01-13T17:08:20.508Z,6.93
2023-01-13T17:10:48.292Z,4.27
2023-01-13T17:13:16.932Z,5.47
2023-01-13T17:15:45.859Z,5.57
2023-01-13T17:18:13.745Z,8.63
2023-01-13T17:20:41.456Z,8.67
2023-01-13T17:23:09.070Z,4.73
2023-01-13T17:25:36.909Z,6.87
2023-01-13T17:28:04.711Z,5.67
2023-01-13T17:30:32.661Z,3.87
2023-01-13T17:33:00.334Z,8.97
2023-01-13T17:35:28.006Z,6.30
2023-01-13T17:37:56.003Z,6.90
2023-01-13T17:40:23.666Z,5.77
2023-01-13T17:42:51.305Z,7.07
2023-01-13T17:45:18.916Z,4.60
2023-01-13T17:47:47.568Z,3.47
2023-01-13T17:50:19.184Z,5.13
2023-01-13T17:52:46.900Z,5.97
2023-01-13T17:55:14.582Z,3.77
2023-01-13T17:57:42.235Z,3.83
2023-01-13T18:00:12.129Z,6.83
2023-01-13T18:02:42.383Z,5.60
2023-01-13T18:05:10.186Z,3.63
2023-01-13T18:07:37.754Z,5.30
2023-01-13T18:10:06.211Z,7.10
2023-01-13T18:12:34.813Z,5.93
2023-01-13T18:15:02.552Z,7.63
2023-01-13T18:17:30.331Z,5.83
2023-01-13T18:20:16.687Z,8.93
2023-01-13T18:23:02.869Z,8.87
2023-01-13T18:25:49.011Z,4.40
2023-01-13T18:28:16.676Z,5.07
2023-01-13T18:30:44.272Z,5.70
2023-01-13T18:33:11.876Z,9.97
2023-01-13T18:35:40.169Z,7.37
2023-01-13T18:38:08.514Z,8.27
2023-01-13T18:40:36.280Z,6.70
2023-01-13T18:43:04.113Z,3.80
2023-01-13T18:45:32.750Z,7.43
2023-01-13T18:48:02.935Z,3.90
2023-01-13T18:50:31.908Z,5.50
2023-01-13T18:52:59.585Z,12.17
2023-01-13T18:55:28.614Z,5.00
2023-01-13T18:57:56.734Z,5.87
2023-01-13T19:00:26.749Z,3.73
2023-01-13T19:05:35.484Z,6.20
2023-01-13T19:08:04.321Z,6.27
2023-01-13T19:10:32.556Z,3.27
2023-01-13T19:13:01.850Z,5.93
2023-01-13T19:15:30.153Z,6.93
2023-01-13T19:17:57.882Z,6.27
2023-01-13T19:20:25.784Z,4.87
2023-01-13T19:22:54.516Z,3.47
2023-01-13T19:25:22.742Z,6.17
2023-01-13T19:27:50.386Z,7.67
2023-01-13T19:30:19.141Z,4.97
2023-01-13T19:32:50.489Z,2.90
2023-01-13T19:35:18.308Z,7.07
2023-01-13T19:37:46.000Z,5.60
2023-01-13T19:40:13.950Z,2.97
2023-01-13T19:43:02.503Z,7.87
2023-01-13T19:45:33.634Z,4.53
2023-01-13T19:48:02.344Z,6.97
2023-01-13T19:50:29.923Z,6.17
2023-01-13T19:52:57.801Z,7.83
2023-01-13T19:55:25.348Z,7.30
2023-01-13T19:57:53.014Z,4.00
2023-01-13T20:00:21.816Z,6.90
2023-01-13T20:02:52.918Z,7.33
2023-01-13T20:05:24.238Z,5.50
2023-01-13T20:07:52.458Z,7.07
2023-01-13T20:10:24.186Z,6.67
2023-01-13T20:12:52.144Z,9.73
2023-01-13T20:15:24.240Z,10.00
2023-01-13T20:17:52.132Z,2.77
2023-01-13T20:20:20.573Z,9.23
2023-01-13T20:22:49.664Z,4.37
2023-01-13T20:25:18.797Z,6.60
2023-01-13T20:27:47.988Z,7.67
2023-01-13T20:30:16.134Z,4.77
2023-01-13T20:32:43.966Z,5.00
2023-01-13T20:35:11.996Z,4.23
2023-01-13T20:37:41.264Z,7.50
2023-01-13T20:40:14.197Z,4.50
2023-01-13T20:42:44.997Z,6.10
2023-01-13T20:45:18.074Z,8.40
2023-01-13T20:47:46.195Z,6.03
2023-01-13T20:50:15.251Z,5.70
2023-01-13T20:52:43.860Z,8.97
2023-01-13T20:55:12.053Z,5.57
2023-01-13T20:57:40.834Z,5.80
2023-01-13T21:00:10.378Z,3.77
2023-01-13T21:02:39.380Z,10.50
2023-01-13T21:05:07.362Z,6.43
2023-01-13T21:07:35.115Z,6.83
2023-01-13T21:10:02.780Z,6.07
2023-01-13T21:12:50.731Z,3.83
2023-01-13T21:15:19.938Z,6.60
2023-01-13T21:18:09.528Z,6.50
2023-01-13T21:20:38.816Z,5.73
2023-01-13T21:23:07.525Z,10.20
2023-01-13T21:25:37.171Z,5.73
2023-01-13T21:28:05.893Z,5.57
2023-01-13T21:30:34.414Z,7.87
2023-01-13T21:33:03.901Z,3.77
2023-01-13T21:35:31.681Z,4.87
2023-01-13T21:37:59.720Z,6.73
2023-01-13T21:40:27.536Z,6.67
2023-01-13T21:43:13.877Z,6.50
2023-01-13T21:46:00.034Z,2.30
2023-01-13T21:48:27.738Z,3.97
2023-01-13T21:50:59.104Z,7.00
2023-01-13T21:53:26.768Z,4.73
2023-01-13T21:55:54.431Z,5.87
2023-01-13T21:58:22.951Z,8.07
2023-01-13T22:00:50.529Z,5.37
2023-01-13T22:03:18.698Z,8.67
2023-01-13T22:05:47.112Z,10.00
2023-01-13T22:08:14.804Z,6.63
2023-01-13T22:10:57.797Z,5.17
2023-01-13T22:13:46.230Z,9.13
2023-01-13T22:16:15.726Z,12.20
2023-01-13T22:18:43.347Z,6.47
2023-01-13T22:21:11.097Z,5.03
2023-01-13T22:23:38.781Z,6.27
2023-01-13T22:26:08.020Z,5.10
2023-01-13T22:28:46.509Z,8.00
2023-01-13T22:31:21.058Z,4.60
2023-01-13T22:33:49.327Z,3.90
2023-01-13T22:36:17.002Z,9.43
2023-01-13T22:38:44.633Z,9.77
2023-01-13T22:41:12.341Z,8.43
2023-01-13T22:43:41.066Z,6.13
2023-01-13T22:46:13.217Z,6.30
2023-01-13T22:48:41.345Z,8.97
2023-01-13T22:51:15.029Z,14.47
2023-01-13T22:53:43.684Z,3.83
2023-01-13T22:56:21.383Z,11.47
2023-01-13T22:58:57.204Z,2.17
2023-01-13T23:01:28.114Z,8.77
2023-01-13T23:03:56.226Z,10.33
2023-01-13T23:06:26.019Z,6.87
2023-01-13T23:08:54.375Z,4.63
2023-01-13T23:11:26.587Z,6.73
2023-01-13T23:14:01.348Z,10.17
2023-01-13T23:16:31.146Z,9.20
2023-01-13T23:18:58.860Z,6.63
2023-01-13T23:21:30.039Z,10.37
2023-01-13T23:23:58.881Z,7.67
2023-01-13T23:26:28.066Z,6.00
2023-01-13T23:29:08.890Z,8.67
2023-01-13T23:31:36.640Z,5.53
2023-01-13T23:34:04.181Z,6.33
2023-01-13T23:36:32.154Z,11.07
2023-01-13T23:38:59.989Z,8.37
2023-01-13T23:41:28.427Z,9.03
2023-01-13T23:43:59.644Z,8.13
2023-01-13T23:46:32.621Z,7.77
2023-01-13T23:49:03.103Z,7.80
2023-01-13T23:51:31.022Z,9.77
2023-01-13T23:53:59.754Z,15.97
2023-01-13T23:56:30.571Z,4.53
2023-01-13T23:58:59.006Z,8.23
